Time;durP1;ratioP1;P1;durP2;ratioP2;P2;SDS_P1;SDS_P2;PMS_P1;PMS_P2;Temp;Humidity;BMP_temperature;BMP_pressure;BME280_temperature;BME280_humidity;BME280_pressure;Samples;Min_cycle;Max_cycle;Signal;HPM_P1;HPM_P2
2022/08/16 00:00:18;;;;;;;30.77;29.17;;;20.30;71.90;;;;;;5037383;28;20562;-69
2022/08/16 00:02:45;;;;;;;30.93;29.50;;;20.40;71.70;;;;;;5047728;28;20526;-68
2022/08/16 00:05:14;;;;;;;32.30;30.70;;;20.30;71.80;;;;;;5045527;28;20561;-68
2022/08/16 00:07:42;;;;;;;33.77;32.17;;;20.30;71.70;;;;;;5033341;28;20448;-68
2022/08/16 00:10:12;;;;;;;33.27;31.67;;;20.30;71.70;;;;;;5029708;28;20897;-68
2022/08/16 00:12:40;;;;;;;33.00;30.90;;;20.40;71.50;;;;;;5045643;28;20547;-69
2022/08/16 00:15:11;;;;;;;31.40;29.70;;;20.40;71.40;;;;;;5045319;28;20690;-68
2022/08/16 00:17:37;;;;;;;30.53;28.97;;;20.40;71.50;;;;;;5042509;28;20471;-68
2022/08/16 00:20:08;;;;;;;31.10;29.60;;;20.40;71.70;;;;;;5042978;28;20549;-66
2022/08/16 00:22:36;;;;;;;31.47;29.97;;;20.30;71.90;;;;;;5039424;28;20463;-66
2022/08/16 00:25:07;;;;;;;33.20;31.60;;;20.30;71.90;;;;;;5043769;28;20543;-66
2022/08/16 00:27:34;;;;;;;32.53;31.03;;;20.20;72.20;;;;;;5031940;28;20465;-65
2022/08/16 00:30:01;;;;;;;31.60;30.17;;;20.20;72.60;;;;;;5033648;28;21578;-65
2022/08/16 00:32:28;;;;;;;33.23;31.53;;;20.10;72.80;;;;;;5040700;28;20558;-66
2022/08/16 00:34:55;;;;;;;33.00;31.40;;;20.00;72.90;;;;;;5037393;28;20464;-66
2022/08/16 00:37:23;;;;;;;31.63;30.13;;;20.00;73.00;;;;;;5037949;28;20569;-66
2022/08/16 00:39:50;;;;;;;34.00;32.37;;;19.90;73.30;;;;;;5041959;28;21016;-65
2022/08/16 00:42:19;;;;;;;34.00;32.30;;;19.80;73.70;;;;;;5042396;28;20465;-66
2022/08/16 00:44:53;;;;;;;33.50;31.70;;;19.80;73.90;;;;;;5036942;28;20459;-66
2022/08/16 00:47:21;;;;;;;34.40;32.80;;;19.70;74.20;;;;;;5037862;28;20549;-66
2022/08/16 00:49:48;;;;;;;32.10;30.50;;;19.60;74.50;;;;;;5038692;28;20540;-66
2022/08/16 00:52:15;;;;;;;32.80;31.10;;;19.60;74.60;;;;;;5034806;28;20915;-66
2022/08/16 00:54:43;;;;;;;33.00;31.40;;;19.50;74.80;;;;;;5045215;28;20480;-66
2022/08/16 00:57:10;;;;;;;33.20;31.60;;;19.50;75.10;;;;;;5044686;28;20578;-66
2022/08/16 00:59:40;;;;;;;32.20;30.60;;;19.50;75.20;;;;;;5044941;28;20544;-66
2022/08/16 01:02:09;;;;;;;32.53;30.80;;;19.50;75.20;;;;;;5036575;28;20468;-66
2022/08/16 01:04:37;;;;;;;33.03;31.43;;;19.40;75.50;;;;;;5040538;28;20901;-66
2022/08/16 01:07:07;;;;;;;35.13;33.30;;;19.40;75.70;;;;;;5036673;28;20893;-66
2022/08/16 01:09:39;;;;;;;33.20;31.50;;;19.40;75.80;;;;;;5038410;28;20982;-66
2022/08/16 01:12:10;;;;;;;34.50;32.70;;;19.30;75.90;;;;;;5032982;28;20493;-66
2022/08/16 01:14:43;;;;;;;34.07;32.27;;;19.30;76.00;;;;;;5044668;28;20459;-66
2022/08/16 01:17:12;;;;;;;32.90;31.10;;;19.30;76.20;;;;;;5040041;28;20492;-66
2022/08/16 01:19:43;;;;;;;34.80;33.10;;;19.30;76.40;;;;;;5036348;28;20458;-66
2022/08/16 01:22:19;;;;;;;34.80;33.00;;;19.20;76.60;;;;;;5037969;28;20604;-66
2022/08/16 01:24:51;;;;;;;33.70;32.00;;;19.20;76.70;;;;;;5045771;28;20539;-66
2022/08/16 01:27:21;;;;;;;32.97;31.30;;;19.20;76.80;;;;;;5032054;28;20546;-66
2022/08/16 01:29:54;;;;;;;34.50;32.87;;;19.30;76.80;;;;;;5034530;28;20532;-65
2022/08/16 01:32:21;;;;;;;34.50;32.60;;;19.30;76.70;;;;;;5044466;28;20457;-66
2022/08/16 01:34:48;;;;;;;35.53;33.80;;;19.30;76.70;;;;;;5040523;28;20465;-66
2022/08/16 01:37:15;;;;;;;36.23;34.43;;;19.30;76.70;;;;;;5040078;28;20603;-66
2022/08/16 01:39:43;;;;;;;34.30;32.63;;;19.40;76.80;;;;;;5043120;28;20456;-68
2022/08/16 01:42:11;;;;;;;35.20;33.50;;;19.40;76.80;;;;;;5044907;28;20582;-68
2022/08/16 01:44:40;;;;;;;35.63;33.93;;;19.30;77.10;;;;;;5043242;28;21082;-69
2022/08/16 01:47:09;;;;;;;34.87;33.20;;;19.30;77.20;;;;;;5042244;28;20467;-68
2022/08/16 01:49:41;;;;;;;36.13;34.43;;;19.30;77.00;;;;;;5042690;28;20460;-68
2022/08/16 01:52:11;;;;;;;36.93;35.27;;;19.30;76.90;;;;;;5041560;28;20487;-67
2022/08/16 01:54:39;;;;;;;36.07;33.97;;;19.40;77.00;;;;;;5037405;28;21086;-68
2022/08/16 01:57:08;;;;;;;34.37;32.77;;;19.40;77.40;;;;;;5040728;28;20555;-68
2022/08/16 01:59:37;;;;;;;34.70;33.00;;;19.40;77.60;;;;;;5035741;28;20473;-68
2022/08/16 02:02:05;;;;;;;33.37;31.77;;;19.40;77.30;;;;;;5043630;28;20570;-67
2022/08/16 02:04:34;;;;;;;35.07;33.37;;;19.40;77.50;;;;;;5037465;28;20489;-68
2022/08/16 02:07:02;;;;;;;35.30;33.50;;;19.30;77.50;;;;;;5043262;28;20903;-68
2022/08/16 02:09:36;;;;;;;34.83;33.00;;;19.30;77.60;;;;;;5036386;28;20823;-68
2022/08/16 02:12:06;;;;;;;36.30;34.57;;;19.40;77.60;;;;;;5031847;28;20998;-68
2022/08/16 02:14:34;;;;;;;37.57;35.57;;;19.40;77.70;;;;;;5039481;28;20580;-68
2022/08/16 02:17:05;;;;;;;35.30;33.50;;;19.30;77.80;;;;;;5039841;28;20579;-67
2022/08/16 02:19:34;;;;;;;38.30;36.47;;;19.30;77.90;;;;;;5042169;28;20462;-68
2022/08/16 02:22:02;;;;;;;34.83;32.93;;;19.30;77.90;;;;;;5042227;28;20508;-68
2022/08/16 02:24:29;;;;;;;36.53;34.83;;;19.40;77.80;;;;;;5039928;28;20528;-68
2022/08/16 02:26:56;;;;;;;39.90;38.00;;;19.40;77.70;;;;;;5042289;28;20580;-68
2022/08/16 02:29:23;;;;;;;34.23;32.53;;;19.50;77.50;;;;;;5037667;28;21276;-69
2022/08/16 02:31:51;;;;;;;39.33;37.43;;;19.60;77.20;;;;;;5043141;28;20552;-68
2022/08/16 02:34:21;;;;;;;35.17;33.47;;;19.60;77.40;;;;;;5038771;28;20543;-68
2022/08/16 02:36:48;;;;;;;40.00;38.00;;;19.60;77.20;;;;;;5041457;28;20459;-68
2022/08/16 02:39:18;;;;;;;35.07;33.27;;;19.60;77.40;;;;;;5043287;28;20483;-68
2022/08/16 02:41:50;;;;;;;36.37;34.57;;;19.60;77.60;;;;;;5034975;28;20474;-68
2022/08/16 02:44:18;;;;;;;36.10;34.07;;;19.60;77.80;;;;;;5030789;28;20455;-67
2022/08/16 02:46:45;;;;;;;37.47;35.67;;;19.60;78.00;;;;;;5042997;28;20540;-68
2022/08/16 02:49:12;;;;;;;36.70;35.00;;;19.60;78.00;;;;;;5040035;28;21199;-68
2022/08/16 02:51:42;;;;;;;33.23;31.50;;;19.60;77.90;;;;;;5030930;28;20581;-68
2022/08/16 02:54:12;;;;;;;45.63;43.33;;;19.60;78.00;;;;;;5037590;28;20491;-67
2022/08/16 02:56:39;;;;;;;34.70;32.87;;;19.70;77.80;;;;;;5047941;28;20460;-68
2022/08/16 02:59:06;;;;;;;37.70;35.97;;;19.60;77.80;;;;;;5041946;28;20475;-68
2022/08/16 03:01:34;;;;;;;34.40;32.90;;;19.70;77.70;;;;;;5042242;28;20570;-68
2022/08/16 03:04:02;;;;;;;38.63;36.83;;;19.70;77.70;;;;;;5044986;28;20552;-69
2022/08/16 03:06:30;;;;;;;46.40;44.23;;;19.70;77.80;;;;;;5046386;28;20460;-68
2022/08/16 03:08:58;;;;;;;35.53;33.80;;;19.70;77.90;;;;;;5035818;28;20454;-68
2022/08/16 03:11:25;;;;;;;34.00;32.40;;;19.70;78.00;;;;;;5042614;28;20578;-69
2022/08/16 03:13:54;;;;;;;59.77;56.87;;;19.70;78.00;;;;;;5035964;28;20459;-68
2022/08/16 03:16:23;;;;;;;36.17;34.30;;;19.70;77.90;;;;;;5043475;28;20523;-68
2022/08/16 03:18:50;;;;;;;39.07;37.17;;;19.70;77.90;;;;;;5041461;28;20568;-69
2022/08/16 03:21:17;;;;;;;37.20;35.03;;;19.60;78.00;;;;;;5040295;28;20507;-68
2022/08/16 03:23:44;;;;;;;38.97;37.03;;;19.60;78.20;;;;;;5045652;28;22135;-68
2022/08/16 03:26:12;;;;;;;35.97;34.37;;;19.60;78.30;;;;;;5035639;28;20897;-67
2022/08/16 03:28:39;;;;;;;51.10;48.50;;;19.60;78.30;;;;;;5041739;28;20557;-69
2022/08/16 03:31:07;;;;;;;41.87;39.87;;;19.60;78.40;;;;;;5042773;28;20570;-68
2022/08/16 03:33:34;;;;;;;65.53;62.40;;;19.50;78.70;;;;;;5045307;28;20461;-69
2022/08/16 03:36:02;;;;;;;57.10;54.50;;;19.40;78.90;;;;;;5046136;28;20463;-68
2022/08/16 03:38:30;;;;;;;55.57;52.67;;;19.40;79.20;;;;;;5044619;28;20564;-68
2022/08/16 03:40:59;;;;;;;54.33;51.60;;;19.40;79.20;;;;;;5039630;28;20850;-68
2022/08/16 03:43:28;;;;;;;54.27;51.73;;;19.40;79.40;;;;;;5040782;28;20467;-68
2022/08/16 03:45:57;;;;;;;36.97;35.30;;;19.30;79.60;;;;;;5046391;28;20460;-68
2022/08/16 03:48:32;;;;;;;58.70;55.83;;;19.30;79.60;;;;;;5034684;28;20457;-69
2022/08/16 03:50:59;;;;;;;40.70;38.43;;;19.30;79.60;;;;;;5043711;28;21103;-68
2022/08/16 03:53:26;;;;;;;45.37;43.30;;;19.30;79.50;;;;;;5040379;28;21088;-68
2022/08/16 03:55:53;;;;;;;36.57;34.87;;;19.30;79.50;;;;;;5045222;28;20551;-68
2022/08/16 03:58:20;;;;;;;50.33;47.73;;;19.40;79.40;;;;;;5041270;28;20914;-67
2022/08/16 04:00:49;;;;;;;52.00;49.50;;;19.30;79.50;;;;;;5035432;28;20479;-67
2022/08/16 04:03:17;;;;;;;41.50;39.60;;;19.30;79.70;;;;;;5037031;28;21009;-68
2022/08/16 04:05:47;;;;;;;52.90;50.37;;;19.30;79.70;;;;;;5035153;28;20457;-67
2022/08/16 04:08:14;;;;;;;48.07;45.73;;;19.30;79.70;;;;;;5045246;28;20468;-69
2022/08/16 04:10:41;;;;;;;47.13;45.03;;;19.40;79.60;;;;;;5045468;28;20573;-68
2022/08/16 04:13:08;;;;;;;48.60;46.27;;;19.40;79.40;;;;;;5046402;28;20544;-68
2022/08/16 04:15:37;;;;;;;45.37;43.23;;;19.30;79.70;;;;;;5041970;28;23121;-68
2022/08/16 04:18:06;;;;;;;41.27;39.27;;;19.30;79.70;;;;;;5043793;28;20479;-68
2022/08/16 04:20:33;;;;;;;47.70;45.30;;;19.40;79.70;;;;;;5040112;28;20563;-68
2022/08/16 04:23:01;;;;;;;55.73;52.87;;;19.40;79.70;;;;;;5037543;28;20558;-67
2022/08/16 04:25:28;;;;;;;48.80;46.53;;;19.40;79.60;;;;;;5040209;28;20466;-68
2022/08/16 04:27:55;;;;;;;45.40;43.20;;;19.40;79.60;;;;;;5043473;28;20650;-68
2022/08/16 04:30:22;;;;;;;37.97;36.07;;;19.50;79.20;;;;;;5035700;28;21062;-68
2022/08/16 04:32:49;;;;;;;44.50;42.43;;;19.50;79.10;;;;;;5037665;28;20548;-69
2022/08/16 04:35:19;;;;;;;40.03;37.97;;;19.60;79.00;;;;;;5039636;28;20461;-69
2022/08/16 04:37:48;;;;;;;43.23;41.03;;;19.60;78.80;;;;;;5045458;28;20458;-70
2022/08/16 04:40:16;;;;;;;38.63;36.73;;;19.70;78.60;;;;;;5039518;28;20885;-74
2022/08/16 04:42:44;;;;;;;54.10;51.50;;;19.80;78.30;;;;;;5044977;28;20488;-68
2022/08/16 04:45:13;;;;;;;37.50;35.60;;;19.80;78.10;;;;;;5042248;28;20468;-68
2022/08/16 04:47:41;;;;;;;39.93;38.10;;;19.90;78.10;;;;;;5045196;28;20458;-68
2022/08/16 04:50:12;;;;;;;45.73;43.40;;;19.90;77.90;;;;;;5038178;28;20557;-67
2022/08/16 04:52:41;;;;;;;42.17;40.07;;;20.00;77.80;;;;;;5040730;28;20458;-68
2022/08/16 04:55:10;;;;;;;44.10;41.77;;;20.10;77.00;;;;;;5045772;28;20464;-68
2022/08/16 04:57:38;;;;;;;36.00;34.30;;;20.20;77.10;;;;;;5039369;28;20455;-68
2022/08/16 05:00:10;;;;;;;57.60;54.43;;;20.30;76.70;;;;;;5041002;28;20917;-71
2022/08/16 05:02:38;;;;;;;44.67;42.47;;;20.40;76.40;;;;;;5041621;28;20462;-72
2022/08/16 05:05:05;;;;;;;58.60;55.63;;;20.50;76.20;;;;;;5042585;28;20572;-72
2022/08/16 05:07:32;;;;;;;43.07;41.10;;;20.60;75.70;;;;;;5034662;28;20581;-68
2022/08/16 05:10:01;;;;;;;40.80;38.77;;;20.70;75.40;;;;;;5033059;28;20459;-68
2022/08/16 05:12:28;;;;;;;38.03;36.30;;;20.70;75.40;;;;;;5042036;28;20456;-68
2022/08/16 05:14:54;;;;;;;40.73;38.80;;;20.70;75.40;;;;;;5043753;28;20450;-69
2022/08/16 05:17:21;;;;;;;37.47;35.57;;;20.70;75.40;;;;;;5044966;28;20462;-66
2022/08/16 05:19:49;;;;;;;61.20;58.10;;;20.80;75.20;;;;;;5044875;28;20499;-67
2022/08/16 05:22:16;;;;;;;39.17;37.17;;;20.80;74.90;;;;;;5038624;28;20471;-68
2022/08/16 05:24:43;;;;;;;53.67;51.17;;;20.90;74.80;;;;;;5043036;28;20460;-69
2022/08/16 05:27:12;;;;;;;52.53;50.03;;;20.90;74.60;;;;;;5034351;28;21143;-69
2022/08/16 05:29:39;;;;;;;40.83;38.90;;;21.10;74.20;;;;;;5039091;28;20570;-70
2022/08/16 05:32:06;;;;;;;47.00;44.73;;;21.20;73.70;;;;;;5033945;28;20611;-69
2022/08/16 05:34:33;;;;;;;47.00;44.77;;;21.20;73.60;;;;;;5032946;28;20464;-70
2022/08/16 05:37:00;;;;;;;42.63;40.33;;;21.30;73.10;;;;;;5033970;28;20626;-70
2022/08/16 05:39:28;;;;;;;46.80;44.50;;;21.40;73.10;;;;;;5038986;28;21004;-70
2022/08/16 05:41:55;;;;;;;33.85;32.10;;;21.40;72.80;;;;;;5039542;28;20476;-70
2022/08/16 05:44:24;;;;;;;35.45;33.75;;;21.60;72.60;;;;;;5036683;28;20860;-67
2022/08/16 05:46:53;;;;;;;41.27;39.43;;;21.70;72.10;;;;;;5033096;28;20328;-68
2022/08/16 05:49:20;;;;;;;56.17;53.47;;;21.70;72.40;;;;;;5041585;28;20463;-68
2022/08/16 05:51:47;;;;;;;37.10;35.30;;;21.70;72.30;;;;;;5042514;28;21060;-68
2022/08/16 05:54:16;;;;;;;45.27;43.03;;;21.80;71.90;;;;;;5044373;28;20491;-68
2022/08/16 05:56:45;;;;;;;41.43;39.40;;;21.80;72.00;;;;;;5042898;28;20495;-68
2022/08/16 05:59:14;;;;;;;43.37;41.30;;;21.70;72.00;;;;;;5041308;28;20873;-68
2022/08/16 06:01:43;;;;;;;38.93;36.77;;;21.80;72.20;;;;;;5044692;28;20566;-68
2022/08/16 06:04:13;;;;;;;44.90;42.60;;;21.80;72.10;;;;;;5043835;28;20460;-70
2022/08/16 06:06:42;;;;;;;43.77;41.77;;;21.90;72.10;;;;;;5037145;28;20448;-70
2022/08/16 06:09:09;;;;;;;56.17;53.27;;;21.90;71.80;;;;;;5035517;28;22072;-70
2022/08/16 06:11:36;;;;;;;51.63;49.37;;;21.90;71.90;;;;;;5034632;28;21235;-70
2022/08/16 06:14:04;;;;;;;43.07;41.03;;;22.10;71.50;;;;;;5036766;28;20460;-69
2022/08/16 06:16:32;;;;;;;53.37;50.80;;;22.20;70.90;;;;;;5035862;28;21648;-70
2022/08/16 06:19:00;;;;;;;40.27;38.27;;;22.20;70.80;;;;;;5036486;28;20596;-70
2022/08/16 06:21:27;;;;;;;52.33;49.83;;;22.30;70.50;;;;;;5035208;28;22299;-70
2022/08/16 06:23:54;;;;;;;42.13;39.93;;;22.40;70.30;;;;;;5034271;28;22095;-69
2022/08/16 06:26:21;;;;;;;42.13;40.17;;;22.50;70.00;;;;;;5035038;28;20451;-71
2022/08/16 06:28:48;;;;;;;42.73;40.57;;;22.60;69.70;;;;;;5037187;28;20464;-69
2022/08/16 06:31:16;;;;;;;48.70;46.40;;;22.70;70.20;;;;;;5034671;28;20499;-71
2022/08/16 06:33:43;;;;;;;59.77;56.93;;;22.70;69.50;;;;;;5039047;28;20981;-68
2022/08/16 06:36:13;;;;;;;56.40;53.90;;;22.90;68.90;;;;;;5043501;28;20452;-69
2022/08/16 06:38:40;;;;;;;45.07;42.87;;;23.00;68.30;;;;;;5045668;28;20555;-68
2022/08/16 06:41:09;;;;;;;48.43;46.20;;;23.10;67.90;;;;;;5038870;28;20914;-69
2022/08/16 06:43:36;;;;;;;42.07;39.83;;;23.20;67.80;;;;;;5051430;28;20489;-69
2022/08/16 06:46:09;;;;;;;45.67;43.37;;;23.20;67.60;;;;;;5037361;28;20490;-69
2022/08/16 06:48:36;;;;;;;59.40;56.50;;;23.30;67.50;;;;;;5037089;28;21247;-68
2022/08/16 06:51:04;;;;;;;53.60;51.00;;;23.30;67.40;;;;;;5043499;28;20479;-66
2022/08/16 06:53:35;;;;;;;54.07;51.33;;;23.50;67.20;;;;;;5039881;28;20464;-66
2022/08/16 06:56:04;;;;;;;41.70;39.50;;;23.40;67.30;;;;;;5039695;28;20481;-66
2022/08/16 06:58:31;;;;;;;44.60;42.50;;;23.40;67.40;;;;;;5039025;28;20937;-66
2022/08/16 07:00:58;;;;;;;52.13;49.60;;;23.40;67.40;;;;;;5040130;28;20887;-66
2022/08/16 07:03:25;;;;;;;45.53;43.23;;;23.60;67.10;;;;;;5034640;28;20462;-65
2022/08/16 07:05:52;;;;;;;48.50;46.03;;;23.60;66.80;;;;;;5040396;28;20543;-66
2022/08/16 07:08:19;;;;;;;40.13;38.00;;;23.70;66.70;;;;;;5042842;28;20472;-66
2022/08/16 07:10:47;;;;;;;41.93;39.60;;;23.80;66.40;;;;;;5040844;28;20904;-66
2022/08/16 07:13:14;;;;;;;42.40;40.50;;;23.90;66.30;;;;;;5040150;28;20552;-66
2022/08/16 07:15:42;;;;;;;50.67;47.93;;;23.90;66.10;;;;;;5040332;28;20533;-67
2022/08/16 07:18:09;;;;;;;44.47;42.37;;;23.90;66.00;;;;;;5042499;28;20461;-66
2022/08/16 07:20:37;;;;;;;46.03;43.90;;;24.00;65.80;;;;;;5036614;28;20485;-66
2022/08/16 07:23:05;;;;;;;49.73;46.93;;;24.10;65.50;;;;;;5035281;28;20549;-66
2022/08/16 07:25:33;;;;;;;53.57;50.93;;;24.10;65.50;;;;;;5041974;28;20470;-66
2022/08/16 07:28:02;;;;;;;43.93;41.60;;;24.20;65.40;;;;;;5041947;28;20578;-66
2022/08/16 07:30:30;;;;;;;49.83;47.50;;;24.30;65.10;;;;;;5037907;28;20622;-66
2022/08/16 07:32:58;;;;;;;55.50;52.60;;;24.40;64.40;;;;;;5048256;28;20532;-66
2022/08/16 07:35:25;;;;;;;46.93;44.63;;;24.50;64.30;;;;;;5048204;28;20454;-66
2022/08/16 07:37:53;;;;;;;47.27;45.17;;;24.70;63.90;;;;;;5043320;28;21293;-66
2022/08/16 07:40:20;;;;;;;44.50;42.30;;;24.80;63.80;;;;;;5031047;28;21010;-66
2022/08/16 07:42:47;;;;;;;64.17;61.10;;;24.80;63.20;;;;;;5045147;28;21068;-66
2022/08/16 07:45:15;;;;;;;48.83;46.53;;;24.90;63.10;;;;;;5049533;28;20459;-66
2022/08/16 07:47:44;;;;;;;53.27;50.77;;;25.00;62.50;;;;;;5036021;28;20523;-66
2022/08/16 07:50:13;;;;;;;45.93;43.60;;;25.10;61.80;;;;;;5037594;28;20554;-66
2022/08/16 07:52:40;;;;;;;42.03;39.73;;;25.10;62.00;;;;;;5042496;28;20952;-66
2022/08/16 07:55:10;;;;;;;52.97;50.20;;;25.20;61.40;;;;;;5045240;28;20455;-66
2022/08/16 07:57:37;;;;;;;49.10;46.50;;;25.30;60.50;;;;;;5042784;28;20456;-66
2022/08/16 08:00:06;;;;;;;46.47;44.23;;;25.30;60.60;;;;;;5048077;28;21039;-66
2022/08/16 08:02:35;;;;;;;47.23;44.83;;;25.40;60.70;;;;;;5037191;28;20474;-66
2022/08/16 08:05:03;;;;;;;56.33;53.47;;;25.60;60.30;;;;;;5040601;28;20530;-66
2022/08/16 08:07:30;;;;;;;51.80;49.30;;;25.70;59.80;;;;;;5043409;28;20521;-66
2022/08/16 08:09:58;;;;;;;53.50;50.77;;;25.80;59.10;;;;;;5040044;28;20487;-65
2022/08/16 08:12:25;;;;;;;46.57;44.17;;;26.10;58.00;;;;;;5047171;28;20879;-66
2022/08/16 08:14:52;;;;;;;58.30;55.30;;;26.10;57.40;;;;;;5037062;28;20559;-66
2022/08/16 08:17:19;;;;;;;45.13;42.93;;;26.40;57.30;;;;;;5042675;28;20474;-66
2022/08/16 08:19:48;;;;;;;52.90;50.30;;;26.60;56.60;;;;;;5034946;28;20503;-66
2022/08/16 08:22:15;;;;;;;43.70;41.60;;;26.70;56.10;;;;;;5038980;28;20799;-66
2022/08/16 08:24:42;;;;;;;64.57;61.40;;;26.50;56.50;;;;;;5044286;28;20462;-66
2022/08/16 08:27:10;;;;;;;52.93;50.40;;;26.60;56.60;;;;;;5047814;28;20543;-66
2022/08/16 08:29:37;;;;;;;42.20;40.10;;;26.80;55.70;;;;;;5032621;28;20474;-66
2022/08/16 08:32:06;;;;;;;56.10;53.40;;;26.90;55.70;;;;;;5036966;28;21073;-66
2022/08/16 08:34:34;;;;;;;57.00;54.03;;;27.00;55.70;;;;;;5034794;28;20708;-67
2022/08/16 08:37:02;;;;;;;55.43;52.70;;;27.20;55.30;;;;;;5038707;28;20539;-66
2022/08/16 08:39:29;;;;;;;49.63;47.13;;;27.30;55.00;;;;;;5042281;28;20562;-66
2022/08/16 08:41:57;;;;;;;44.07;41.73;;;27.10;57.10;;;;;;5048470;28;20545;-66
2022/08/16 08:44:24;;;;;;;41.23;39.10;;;27.00;57.40;;;;;;5041481;28;20465;-66
2022/08/16 08:46:50;;;;;;;50.27;47.50;;;26.80;58.00;;;;;;5038008;28;20555;-66
2022/08/16 08:49:17;;;;;;;50.80;48.30;;;26.60;58.10;;;;;;5036425;28;20465;-66
2022/08/16 08:51:45;;;;;;;48.53;45.80;;;26.60;58.00;;;;;;5041597;28;20952;-66
2022/08/16 08:54:14;;;;;;;42.17;39.40;;;26.50;59.00;;;;;;5039660;28;20550;-66
2022/08/16 08:56:41;;;;;;;44.23;42.03;;;26.50;59.00;;;;;;5045758;28;20771;-66
2022/08/16 08:59:08;;;;;;;51.20;48.57;;;26.30;58.40;;;;;;5047434;28;20513;-66
2022/08/16 09:01:37;;;;;;;51.80;49.17;;;26.20;58.60;;;;;;5042824;28;21005;-66
2022/08/16 09:04:05;;;;;;;50.70;47.97;;;26.30;58.90;;;;;;5032440;28;20470;-66
2022/08/16 09:06:32;;;;;;;61.40;58.17;;;26.30;59.20;;;;;;5039276;28;20459;-66
2022/08/16 09:08:59;;;;;;;58.30;55.43;;;26.60;58.30;;;;;;5035235;28;20464;-66
2022/08/16 09:11:28;;;;;;;51.43;48.50;;;26.70;57.90;;;;;;5042190;28;20503;-66
2022/08/16 09:13:55;;;;;;;47.53;45.13;;;26.70;57.90;;;;;;5046353;28;20539;-66
2022/08/16 09:16:22;;;;;;;58.50;55.50;;;26.50;58.10;;;;;;5042319;28;20459;-66
2022/08/16 09:18:49;;;;;;;48.50;46.00;;;26.60;58.30;;;;;;5029503;28;20539;-66
2022/08/16 09:21:16;;;;;;;43.30;41.00;;;26.80;57.70;;;;;;5037769;28;20553;-66
2022/08/16 09:23:44;;;;;;;47.03;44.33;;;26.90;57.30;;;;;;5029485;28;20468;-66
2022/08/16 09:26:14;;;;;;;55.70;52.80;;;26.80;57.70;;;;;;5049092;28;20985;-66
2022/08/16 09:28:43;;;;;;;49.63;47.00;;;27.00;57.00;;;;;;5043328;28;20496;-66
2022/08/16 09:31:11;;;;;;;47.20;44.70;;;27.00;56.90;;;;;;5034631;28;20472;-67
2022/08/16 09:33:39;;;;;;;51.77;49.10;;;27.10;56.40;;;;;;5049311;28;20483;-66
2022/08/16 09:36:07;;;;;;;49.70;47.10;;;27.40;56.00;;;;;;5044987;28;20463;-66
2022/08/16 09:38:35;;;;;;;45.23;42.70;;;27.70;54.60;;;;;;5049129;28;20959;-66
2022/08/16 09:41:05;;;;;;;47.13;44.73;;;27.80;55.10;;;;;;5045845;28;20572;-66
2022/08/16 09:43:33;;;;;;;47.50;45.10;;;27.70;55.20;;;;;;5049293;28;20457;-65
2022/08/16 09:46:03;;;;;;;54.73;52.00;;;27.80;54.80;;;;;;5047406;28;20909;-66
2022/08/16 09:48:31;;;;;;;44.40;42.30;;;27.90;54.40;;;;;;5034984;28;21309;-68
2022/08/16 09:50:58;;;;;;;45.20;42.90;;;28.20;53.30;;;;;;5038801;28;20831;-68
2022/08/16 09:53:25;;;;;;;42.30;40.30;;;27.90;54.60;;;;;;5038916;28;20895;-68
2022/08/16 09:55:55;;;;;;;54.00;51.30;;;28.10;54.30;;;;;;5033342;28;20469;-68
2022/08/16 09:58:25;;;;;;;51.43;48.87;;;28.10;53.70;;;;;;5045496;28;20547;-67
2022/08/16 10:00:53;;;;;;;55.57;52.73;;;27.70;54.50;;;;;;5040846;28;21382;-70
2022/08/16 10:03:22;;;;;;;56.93;53.73;;;27.40;54.60;;;;;;5034129;28;20567;-67
2022/08/16 10:05:49;;;;;;;48.07;45.67;;;27.20;54.90;;;;;;5044923;28;21004;-66
2022/08/16 10:08:17;;;;;;;52.40;49.70;;;27.00;55.40;;;;;;5044963;28;20515;-65
2022/08/16 10:13:10;;;;;;;48.10;45.43;;;27.20;55.20;;;;;;5041073;28;20561;-66
2022/08/16 10:13:33;;;;;;;56.53;53.73;;;27.20;55.60;;;;;;5049539;28;20466;-66
2022/08/16 10:16:01;;;;;;;53.80;51.20;;;27.10;55.90;;;;;;5047788;28;20952;-67
2022/08/16 10:18:31;;;;;;;60.60;57.40;;;27.10;56.10;;;;;;5049833;28;21020;-68
2022/08/16 10:20:58;;;;;;;50.70;48.10;;;27.30;55.20;;;;;;5048264;28;20490;-70
2022/08/16 10:23:26;;;;;;;53.20;50.50;;;26.90;55.70;;;;;;5050265;28;20549;-70
2022/08/16 10:26:02;;;;;;;52.00;49.30;;;26.90;55.90;;;;;;5044674;28;20895;-71
2022/08/16 10:28:30;;;;;;;51.03;48.47;;;26.90;55.90;;;;;;5046844;28;20464;-71
2022/08/16 10:30:58;;;;;;;46.80;44.40;;;27.20;55.80;;;;;;5040356;28;20479;-69
2022/08/16 10:33:25;;;;;;;50.43;47.87;;;27.50;54.90;;;;;;5033419;28;20464;-69
2022/08/16 10:35:54;;;;;;;57.67;54.57;;;27.60;55.30;;;;;;5045525;28;20487;-72
2022/08/16 10:38:21;;;;;;;46.40;44.10;;;27.90;54.10;;;;;;5046656;28;20483;-69
2022/08/16 10:40:49;;;;;;;55.80;52.67;;;28.10;53.90;;;;;;5049292;28;20518;-71
2022/08/16 10:43:16;;;;;;;54.40;51.70;;;28.50;52.70;;;;;;5038923;28;21193;-71
2022/08/16 10:45:47;;;;;;;60.50;57.40;;;28.40;52.60;;;;;;5038551;28;20478;-70
2022/08/16 10:48:14;;;;;;;47.57;45.17;;;28.50;52.80;;;;;;5037332;28;21362;-70
2022/08/16 10:50:41;;;;;;;44.13;41.83;;;27.90;53.40;;;;;;5048706;28;20910;-69
2022/08/16 10:53:09;;;;;;;53.40;50.60;;;27.60;54.20;;;;;;5045170;28;20543;-69
2022/08/16 10:55:38;;;;;;;61.93;58.23;;;27.60;54.20;;;;;;5041779;28;20460;-71
2022/08/16 10:58:10;;;;;;;47.67;45.30;;;27.90;53.70;;;;;;5045450;28;20558;-70
2022/08/16 11:00:39;;;;;;;45.83;43.67;;;28.10;53.10;;;;;;5050068;28;20598;-70
2022/08/16 11:03:08;;;;;;;56.80;53.90;;;28.40;52.60;;;;;;5043205;28;20463;-71
2022/08/16 11:05:42;;;;;;;51.30;48.90;;;28.70;52.20;;;;;;5049237;28;22973;-70
2022/08/16 11:08:11;;;;;;;50.73;48.17;;;29.10;51.70;;;;;;5050426;28;20482;-69
2022/08/16 11:10:43;;;;;;;44.53;42.40;;;29.30;50.70;;;;;;5041162;28;20598;-68
2022/08/16 11:13:13;;;;;;;57.67;54.67;;;29.20;50.80;;;;;;5042269;28;21133;-69
2022/08/16 11:15:42;;;;;;;55.10;52.23;;;29.20;50.70;;;;;;5034797;28;20491;-67
2022/08/16 11:18:09;;;;;;;43.90;41.80;;;29.40;50.30;;;;;;5035039;28;21014;-68
2022/08/16 11:20:36;;;;;;;46.23;44.00;;;29.40;50.10;;;;;;5042082;28;20495;-67
2022/08/16 11:23:04;;;;;;;50.93;48.40;;;29.30;50.40;;;;;;5045005;28;20542;-67
2022/08/16 11:25:34;;;;;;;43.10;40.90;;;29.30;50.70;;;;;;5045768;28;20452;-66
2022/08/16 11:28:01;;;;;;;44.50;42.30;;;29.40;50.40;;;;;;5050375;28;20888;-66
2022/08/16 11:30:30;;;;;;;46.47;44.27;;;29.60;49.90;;;;;;5036604;28;20555;-66
2022/08/16 11:32:57;;;;;;;43.40;41.20;;;29.90;49.50;;;;;;5041748;28;20464;-67
2022/08/16 11:35:28;;;;;;;57.90;55.00;;;30.20;48.30;;;;;;5037367;28;20460;-67
2022/08/16 11:37:57;;;;;;;53.80;51.20;;;30.40;47.70;;;;;;5051366;28;20485;-67
2022/08/16 11:40:25;;;;;;;45.77;43.53;;;30.20;47.10;;;;;;5041889;28;20566;-68
2022/08/16 11:42:55;;;;;;;57.53;54.73;;;29.90;47.30;;;;;;5041752;28;20462;-70
2022/08/16 11:45:22;;;;;;;58.30;55.23;;;29.40;48.60;;;;;;5047029;28;20463;-70
2022/08/16 11:47:49;;;;;;;58.57;55.50;;;29.20;49.40;;;;;;5043992;28;20455;-70
2022/08/16 11:50:16;;;;;;;44.97;42.90;;;29.30;49.50;;;;;;5049927;28;20475;-71
2022/08/16 11:52:43;;;;;;;41.97;39.80;;;28.80;50.10;;;;;;5049736;28;20539;-68
2022/08/16 11:55:12;;;;;;;54.70;51.53;;;28.40;51.10;;;;;;5035040;28;20533;-69
2022/08/16 11:57:40;;;;;;;59.93;57.03;;;28.40;50.90;;;;;;5042717;28;20474;-66
2022/08/16 12:00:12;;;;;;;49.53;47.20;;;28.50;50.60;;;;;;5037369;28;20455;-66
2022/08/16 12:02:39;;;;;;;41.67;39.70;;;28.70;50.10;;;;;;5035107;28;20496;-69
2022/08/16 12:05:08;;;;;;;61.93;58.93;;;28.60;50.40;;;;;;5048942;28;20459;-67
2022/08/16 12:07:36;;;;;;;49.67;47.27;;;28.50;50.50;;;;;;5047990;28;20487;-66
2022/08/16 12:10:09;;;;;;;61.33;58.37;;;28.50;50.50;;;;;;5050417;28;20630;-66
2022/08/16 12:12:36;;;;;;;46.10;43.90;;;28.60;50.50;;;;;;5045320;28;20577;-68
2022/08/16 12:15:03;;;;;;;42.67;40.37;;;28.80;50.00;;;;;;5048398;28;20471;-70
2022/08/16 12:17:32;;;;;;;60.10;56.57;;;28.90;49.70;;;;;;5043161;28;20930;-71
2022/08/16 12:20:00;;;;;;;53.53;50.80;;;29.00;49.70;;;;;;5048260;28;20550;-71
2022/08/16 12:22:27;;;;;;;57.63;54.37;;;29.10;49.10;;;;;;5047822;28;20487;-71
2022/08/16 12:24:53;;;;;;;60.90;57.63;;;29.30;48.60;;;;;;5038705;28;21046;-70
2022/08/16 12:27:22;;;;;;;46.03;43.60;;;29.20;48.20;;;;;;5043874;28;20555;-70
2022/08/16 12:29:50;;;;;;;58.07;55.03;;;29.20;48.30;;;;;;5040428;28;20460;-69
2022/08/16 12:32:17;;;;;;;50.77;48.43;;;29.20;48.30;;;;;;5039069;28;20806;-67